createdAt,value
2022-12-19T00:01:16.386Z,102429.36
2022-12-19T00:03:49.924Z,102427.02
2022-12-19T00:06:22.439Z,102425.62
2022-12-19T00:08:55.793Z,102422.78
2022-12-19T00:11:28.508Z,102411.55
2022-12-19T00:14:01.137Z,102402.20
2022-12-19T00:16:33.206Z,102400.97
2022-12-19T00:19:05.122Z,102396.73
2022-12-19T00:21:37.926Z,102385.74
2022-12-19T00:24:20.754Z,102380.70
2022-12-19T00:26:53.320Z,102378.95
2022-12-19T00:29:25.288Z,102374.73
2022-12-19T00:31:56.940Z,102372.44
2022-12-19T00:34:28.940Z,102364.46
2022-12-19T00:37:00.691Z,102362.30
2022-12-19T00:39:32.272Z,102369.13
2022-12-19T00:42:03.963Z,102370.55
2022-12-19T00:44:35.814Z,102369.85
2022-12-19T00:47:07.657Z,102362.69
2022-12-19T00:49:39.203Z,102354.55
2022-12-19T00:52:13.817Z,102349.25
2022-12-19T00:54:45.509Z,102348.97
2022-12-19T00:57:17.912Z,102346.85
2022-12-19T00:59:49.915Z,102338.98
2022-12-19T01:02:21.639Z,102331.73
2022-12-19T01:04:53.460Z,102329.10
2022-12-19T01:07:25.202Z,102324.94
2022-12-19T01:09:56.846Z,102323.76
2022-12-19T01:12:46.944Z,102321.35
2022-12-19T01:15:21.782Z,102315.73
2022-12-19T01:17:53.671Z,102315.65
2022-12-19T01:20:29.481Z,102307.90
2022-12-19T01:23:01.856Z,102310.52
2022-12-19T01:25:33.841Z,102305.38
2022-12-19T01:28:09.507Z,102306.52
2022-12-19T01:30:43.765Z,102303.24
2022-12-19T01:33:18.638Z,102303.10
2022-12-19T01:35:50.595Z,102304.09
2022-12-19T01:38:22.983Z,102298.81
2022-12-19T01:40:57.154Z,102298.08
2022-12-19T01:43:32.090Z,102287.94
2022-12-19T01:46:07.307Z,102289.43
2022-12-19T01:48:43.909Z,102288.09
2022-12-19T01:51:19.325Z,102278.70
2022-12-19T01:53:54.203Z,102279.23
2022-12-19T01:56:30.359Z,102279.59
2022-12-19T01:59:07.007Z,102278.80
2022-12-19T02:01:51.066Z,102277.73
2022-12-19T02:04:24.750Z,102274.78
2022-12-19T02:06:58.669Z,102270.92
2022-12-19T02:09:30.491Z,102262.78
2022-12-19T02:12:03.157Z,102255.28
2022-12-19T02:14:35.793Z,102245.18
2022-12-19T02:17:14.451Z,102240.96
2022-12-19T02:20:14.030Z,102233.89
2022-12-19T02:23:05.774Z,102226.64
2022-12-19T02:25:55.795Z,102221.52
2022-12-19T02:28:45.826Z,102219.28
2022-12-19T02:31:23.071Z,102212.73
2022-12-19T02:34:01.615Z,102212.20
2022-12-19T02:36:40.352Z,102205.64
2022-12-19T02:39:20.517Z,102203.40
2022-12-19T02:41:56.644Z,102209.58
2022-12-19T02:44:34.044Z,102201.71
2022-12-19T02:47:08.744Z,102201.36
2022-12-19T02:49:41.021Z,102193.65
2022-12-19T02:52:15.438Z,102187.13
2022-12-19T02:54:48.928Z,102170.48
2022-12-19T02:57:26.727Z,102168.84
2022-12-19T03:00:14.038Z,102160.33
2022-12-19T03:03:00.503Z,102159.10
2022-12-19T03:05:41.571Z,102155.65
2022-12-19T03:08:27.480Z,102150.04
2022-12-19T03:11:02.969Z,102148.88
2022-12-19T03:13:39.446Z,102146.73
2022-12-19T03:16:13.534Z,102145.08
2022-12-19T03:18:45.797Z,102140.48
2022-12-19T03:21:21.896Z,102140.36
2022-12-19T03:23:56.098Z,102140.45
2022-12-19T03:26:33.641Z,102133.92
2022-12-19T03:29:10.640Z,102125.89
2022-12-19T03:31:43.405Z,102128.13
2022-12-19T03:34:20.890Z,102124.38
2022-12-19T03:36:56.957Z,102123.11
2022-12-19T03:39:31.163Z,102124.66
2022-12-19T03:42:23.696Z,102126.36
2022-12-19T03:44:56.844Z,102133.27
2022-12-19T03:47:34.836Z,102143.14
2022-12-19T03:50:13.270Z,102149.76
2022-12-19T03:52:54.534Z,102143.55
2022-12-19T03:55:33.135Z,102136.99
2022-12-19T03:58:10.878Z,102137.02
2022-12-19T04:00:49.007Z,102132.94
2022-12-19T04:03:22.379Z,102140.00
2022-12-19T04:05:55.258Z,102138.27
2022-12-19T04:08:27.745Z,102141.75
2022-12-19T04:11:05.005Z,102150.14
2022-12-19T04:13:39.947Z,102154.59
2022-12-19T04:16:19.795Z,102149.61
2022-12-19T04:18:59.360Z,102145.98
2022-12-19T04:21:37.994Z,102153.95
2022-12-19T04:24:15.112Z,102145.25
2022-12-19T04:26:49.782Z,102144.19
2022-12-19T04:29:22.974Z,102140.67
2022-12-19T04:31:55.797Z,102137.07
2022-12-19T04:34:27.498Z,102139.59
2022-12-19T04:36:59.227Z,102135.86
2022-12-19T04:39:31.033Z,102127.61
2022-12-19T04:42:02.642Z,102125.31
2022-12-19T04:44:34.353Z,102121.75
2022-12-19T04:47:06.145Z,102108.91
2022-12-19T04:49:37.828Z,102105.00
2022-12-19T04:52:09.576Z,102099.23
2022-12-19T04:54:41.151Z,102089.83
2022-12-19T04:57:12.774Z,102084.95
2022-12-19T04:59:44.429Z,102084.27
2022-12-19T05:02:16.551Z,102080.80
2022-12-19T05:04:49.088Z,102079.69
2022-12-19T05:07:20.808Z,102082.29
2022-12-19T05:09:52.511Z,102077.73
2022-12-19T05:12:24.188Z,102074.52
2022-12-19T05:14:55.816Z,102062.45
2022-12-19T05:17:27.538Z,102050.17
2022-12-19T05:19:59.151Z,102041.71
2022-12-19T05:22:30.932Z,102044.71
2022-12-19T05:25:02.606Z,102049.10
2022-12-19T05:27:34.533Z,102048.73
2022-12-19T05:30:09.098Z,102044.38
2022-12-19T05:32:47.600Z,102051.67
2022-12-19T05:35:19.219Z,102053.55
2022-12-19T05:37:51.251Z,102049.53
2022-12-19T05:40:27.137Z,102041.10
2022-12-19T05:42:58.898Z,102041.02
2022-12-19T05:45:30.617Z,102040.93
2022-12-19T05:48:02.436Z,102037.89
2022-12-19T05:50:34.023Z,102037.84
2022-12-19T05:53:06.109Z,102044.08
2022-12-19T05:55:37.723Z,102055.94
2022-12-19T05:58:09.386Z,102057.08
2022-12-19T06:00:41.319Z,102054.71
2022-12-19T06:03:13.207Z,102056.79
2022-12-19T06:05:44.929Z,102056.52
2022-12-19T06:08:16.524Z,102058.05
2022-12-19T06:10:48.165Z,102055.09
2022-12-19T06:13:24.936Z,102050.81
2022-12-19T06:16:01.300Z,102053.29
2022-12-19T06:18:33.690Z,102054.03
2022-12-19T06:21:07.697Z,102047.79
2022-12-19T06:23:39.706Z,102045.23
2022-12-19T06:26:18.727Z,102047.17
2022-12-19T06:28:52.744Z,102052.55
2022-12-19T06:31:26.020Z,102058.00
2022-12-19T06:33:58.202Z,102064.69
2022-12-19T06:36:31.680Z,102061.14
2022-12-19T06:39:06.503Z,102055.77
2022-12-19T06:41:55.490Z,102046.84
2022-12-19T06:44:27.189Z,102043.13
2022-12-19T06:46:58.846Z,102039.95
2022-12-19T06:49:30.604Z,102042.40
2022-12-19T06:52:07.638Z,102034.58
2022-12-19T06:54:41.305Z,102033.35
2022-12-19T06:57:13.162Z,102035.83
2022-12-19T06:59:44.835Z,102039.23
2022-12-19T07:02:27.378Z,102033.61
2022-12-19T07:05:04.228Z,102036.14
2022-12-19T07:07:36.470Z,102038.50
2022-12-19T07:10:25.672Z,102037.38
2022-12-19T07:12:57.819Z,102036.72
2022-12-19T07:15:31.825Z,102031.70
2022-12-19T07:18:05.606Z,102038.89
2022-12-19T07:20:45.045Z,102041.38
2022-12-19T07:23:22.093Z,102046.40
2022-12-19T07:26:08.839Z,102050.48
2022-12-19T07:28:40.660Z,102043.37
2022-12-19T07:31:12.393Z,102037.54
2022-12-19T07:33:44.108Z,102036.84
2022-12-19T07:36:15.801Z,102036.23
2022-12-19T07:38:47.493Z,102028.84
2022-12-19T07:41:19.204Z,102027.15
2022-12-19T07:43:50.831Z,102028.73
2022-12-19T07:46:22.963Z,102028.92
2022-12-19T07:48:54.597Z,102028.50
2022-12-19T07:51:26.337Z,102032.05
2022-12-19T07:53:58.153Z,102030.77
2022-12-19T07:56:30.384Z,102014.64
2022-12-19T07:59:02.787Z,102002.77
2022-12-19T08:01:34.566Z,101991.94
2022-12-19T08:04:06.527Z,101988.48
2022-12-19T08:06:41.404Z,102005.47
2022-12-19T08:09:13.433Z,102000.92
2022-12-19T08:11:47.637Z,101991.67
2022-12-19T08:14:22.917Z,101986.15
2022-12-19T08:19:46.221Z,101989.06
2022-12-19T08:22:18.024Z,101985.58
2022-12-19T08:24:49.665Z,101974.39
2022-12-19T08:27:21.318Z,101972.67
2022-12-19T08:29:53.139Z,101967.93
2022-12-19T08:32:24.966Z,101971.70
2022-12-19T08:34:57.042Z,101969.55
2022-12-19T08:37:28.737Z,101968.90
2022-12-19T08:40:01.825Z,101963.57
2022-12-19T08:42:33.686Z,101967.45
2022-12-19T08:45:06.221Z,101969.63
2022-12-19T08:47:37.951Z,101971.08
2022-12-19T08:50:15.865Z,101971.25
2022-12-19T08:52:48.253Z,101964.21
2022-12-19T08:55:20.195Z,101966.42
2022-12-19T08:57:50.723Z,101965.62
2022-12-19T09:00:23.420Z,101963.65
2022-12-19T09:02:56.024Z,101966.20
2022-12-19T09:06:03.648Z,101963.40
2022-12-19T09:08:19.610Z,101953.12
2022-12-19T09:10:51.693Z,101952.62
2022-12-19T09:13:23.334Z,101953.83
2022-12-19T09:16:04.539Z,101957.17
2022-12-19T09:18:37.830Z,101949.96
2022-12-19T09:21:10.145Z,101948.86
2022-12-19T09:23:43.125Z,101947.40
2022-12-19T09:26:17.392Z,101944.48
2022-12-19T09:28:50.152Z,101935.38
2022-12-19T09:31:33.853Z,101929.73
2022-12-19T09:34:06.596Z,101916.44
2022-12-19T09:36:38.269Z,101902.02
2022-12-19T09:39:11.235Z,101908.65
2022-12-19T09:42:02.558Z,101904.48
2022-12-19T09:44:45.750Z,101900.39
2022-12-19T09:47:21.308Z,101891.33
2022-12-19T09:49:56.405Z,101891.20
2022-12-19T09:52:34.578Z,101895.14
2022-12-19T09:55:16.793Z,101887.44
2022-12-19T09:58:12.852Z,101886.44
2022-12-19T10:00:59.529Z,101890.92
2022-12-19T10:03:40.214Z,101893.54
2022-12-19T10:07:11.804Z,101887.48
2022-12-19T10:10:59.234Z,101887.63
2022-12-19T10:12:45.360Z,101883.35
2022-12-19T10:15:27.377Z,101886.14
2022-12-19T10:18:15.592Z,101876.38
2022-12-19T10:20:54.291Z,101860.23
2022-12-19T10:23:50.506Z,101844.91
2022-12-19T10:26:30.001Z,101833.17
2022-12-19T10:29:18.392Z,101833.38
2022-12-19T10:31:58.857Z,101826.55
2022-12-19T10:34:38.692Z,101833.83
2022-12-19T10:37:29.673Z,101836.44
2022-12-19T10:40:27.979Z,101834.73
2022-12-19T10:43:10.518Z,101828.86
2022-12-19T10:45:48.794Z,101821.02
2022-12-19T10:48:30.186Z,101811.27
2022-12-19T10:51:06.712Z,101808.73
2022-12-19T10:53:38.813Z,101806.23
2022-12-19T10:56:23.497Z,101796.58
2022-12-19T10:58:59.041Z,101790.28
2022-12-19T11:01:34.395Z,101788.73
2022-12-19T11:04:25.840Z,101786.05
2022-12-19T11:07:18.888Z,101778.69
2022-12-19T11:10:17.770Z,101773.08
2022-12-19T11:16:35.983Z,101773.62
2022-12-19T11:19:23.046Z,101773.80
2022-12-19T11:27:30.647Z,101756.88
2022-12-19T11:30:08.652Z,101747.17
2022-12-19T11:30:45.504Z,101740.35
2022-12-19T11:30:46.605Z,101748.43
2022-12-19T11:31:58.413Z,101736.62
2022-12-19T11:33:27.848Z,101741.80
2022-12-19T11:36:02.081Z,101742.19
2022-12-19T11:38:40.850Z,101734.15
2022-12-19T11:41:17.752Z,101730.29
2022-12-19T11:43:55.256Z,101722.36
2022-12-19T11:46:35.556Z,101716.09
2022-12-19T11:49:26.037Z,101712.71
2022-12-19T11:52:04.231Z,101704.69
2022-12-19T11:54:44.048Z,101699.98
2022-12-19T11:57:15.834Z,101697.64
2022-12-19T11:59:48.018Z,101688.61
2022-12-19T12:02:48.139Z,101682.91
2022-12-19T12:05:34.284Z,101675.34
2022-12-19T12:09:53.725Z,101671.06
2022-12-19T12:18:13.923Z,101671.71
2022-12-19T12:21:38.944Z,101666.07
2022-12-19T12:31:07.050Z,101665.45
2022-12-19T12:31:11.642Z,101667.80
2022-12-19T12:31:38.741Z,101664.34
2022-12-19T12:31:44.724Z,101665.98
2022-12-19T12:31:58.469Z,101658.70
2022-12-19T12:35:35.101Z,101652.28
2022-12-19T12:39:16.005Z,101644.63
2022-12-19T12:42:07.132Z,101630.40
2022-12-19T12:44:45.656Z,101623.35
2022-12-19T12:47:22.776Z,101621.52
2022-12-19T12:49:58.748Z,101620.58
2022-12-19T12:52:35.465Z,101617.77
2022-12-19T12:55:15.478Z,101616.56
2022-12-19T12:57:47.173Z,101608.08
2022-12-19T13:00:33.577Z,101601.09
2022-12-19T13:03:12.677Z,101601.23
2022-12-19T13:05:54.641Z,101590.08
2022-12-19T13:08:36.264Z,101587.66
2022-12-19T13:11:33.993Z,101584.30
2022-12-19T13:14:06.624Z,101588.17
2022-12-19T13:16:55.300Z,101583.36
2022-12-19T13:19:29.783Z,101585.79
2022-12-19T13:22:38.044Z,101589.08
2022-12-19T13:25:40.284Z,101588.14
2022-12-19T13:28:37.683Z,101584.21
2022-12-19T13:31:23.673Z,101585.16
2022-12-19T13:34:17.840Z,101582.21
2022-12-19T13:39:49.007Z,101575.26
2022-12-19T13:40:11.967Z,101573.50
2022-12-19T13:43:16.144Z,101578.45
2022-12-19T13:45:55.312Z,101569.04
2022-12-19T13:48:32.963Z,101562.30
2022-12-19T13:51:08.373Z,101563.61
2022-12-19T13:53:41.842Z,101555.71
2022-12-19T13:56:17.851Z,101551.50
2022-12-19T13:58:52.366Z,101545.25
2022-12-19T14:01:28.782Z,101546.83
2022-12-19T14:04:07.999Z,101550.89
2022-12-19T14:06:45.063Z,101551.22
2022-12-19T14:11:26.477Z,101547.04
2022-12-19T14:14:01.306Z,101540.10
2022-12-19T14:15:38.362Z,101534.80
2022-12-19T14:18:44.268Z,101532.06
2022-12-19T14:22:04.708Z,101529.34
2022-12-19T14:24:20.017Z,101531.16
2022-12-19T14:28:26.078Z,101526.69
2022-12-19T14:30:27.959Z,101522.83
2022-12-19T14:33:40.419Z,101521.81
2022-12-19T14:36:11.467Z,101515.45
2022-12-19T14:39:19.920Z,101514.90
2022-12-19T14:42:02.166Z,101508.48
2022-12-19T14:52:07.997Z,101511.58
2022-12-19T14:52:08.189Z,101509.89
2022-12-19T14:54:15.329Z,101514.93
2022-12-19T14:54:46.700Z,101515.01
2022-12-19T14:59:27.889Z,101508.64
2022-12-19T15:02:03.891Z,101504.96
2022-12-19T15:04:50.711Z,101500.61
2022-12-19T15:07:28.829Z,101502.64
2022-12-19T15:11:03.011Z,101497.65
2022-12-19T15:14:47.963Z,101487.20
2022-12-19T15:16:28.303Z,101486.80
2022-12-19T15:19:02.531Z,101484.14
2022-12-19T15:21:34.297Z,101483.10
2022-12-19T15:24:06.240Z,101472.64
2022-12-19T15:26:47.770Z,101471.48
2022-12-19T15:29:22.344Z,101470.70
2022-12-19T15:31:54.770Z,101463.64
2022-12-19T15:34:41.945Z,101462.83
2022-12-19T15:37:20.405Z,101455.52
2022-12-19T15:39:52.311Z,101453.95
2022-12-19T15:42:27.239Z,101454.10
2022-12-19T15:45:01.147Z,101456.94
2022-12-19T15:47:35.040Z,101456.44
2022-12-19T15:50:18.841Z,101455.58
2022-12-19T15:52:59.926Z,101450.45
2022-12-19T15:55:33.012Z,101450.45
2022-12-19T15:58:07.955Z,101444.40
2022-12-19T16:00:41.374Z,101445.46
2022-12-19T16:03:23.165Z,101441.75
2022-12-19T16:05:56.252Z,101439.27
2022-12-19T16:08:28.627Z,101438.70
2022-12-19T16:11:02.210Z,101434.84
2022-12-19T16:13:35.986Z,101430.98
2022-12-19T16:16:15.339Z,101422.05
2022-12-19T16:18:47.607Z,101419.30
2022-12-19T16:21:29.635Z,101415.65
2022-12-19T16:24:05.903Z,101414.98
2022-12-19T16:26:41.526Z,101407.89
2022-12-19T16:29:20.631Z,101409.20
2022-12-19T16:31:52.424Z,101408.08
2022-12-19T16:34:26.421Z,101404.59
2022-12-19T16:36:58.134Z,101400.90
2022-12-19T16:39:30.161Z,101398.38
2022-12-19T16:42:01.948Z,101397.61
2022-12-19T16:44:35.983Z,101395.77
2022-12-19T16:47:14.445Z,101401.27
2022-12-19T16:49:46.481Z,101394.22
2022-12-19T16:52:18.069Z,101394.69
2022-12-19T16:54:51.125Z,101398.00
2022-12-19T16:57:23.797Z,101392.01
2022-12-19T16:59:55.466Z,101395.65
2022-12-19T17:02:43.836Z,101389.19
2022-12-19T17:05:24.238Z,101383.90
2022-12-19T17:07:56.919Z,101382.67
2022-12-19T17:10:34.263Z,101380.61
2022-12-19T17:13:06.219Z,101376.23
2022-12-19T17:15:38.975Z,101376.87
2022-12-19T17:18:17.464Z,101372.32
2022-12-19T17:20:49.199Z,101367.56
2022-12-19T17:23:22.066Z,101362.27
2022-12-19T17:25:54.945Z,101369.51
2022-12-19T17:28:27.144Z,101363.76
2022-12-19T17:31:03.435Z,101362.90
2022-12-19T17:33:37.758Z,101363.52
2022-12-19T17:36:15.401Z,101360.36
2022-12-19T17:38:48.814Z,101356.03
2022-12-19T17:41:20.491Z,101351.06
2022-12-19T17:43:52.747Z,101348.42
2022-12-19T17:46:26.281Z,101345.81
2022-12-19T17:48:58.038Z,101340.59
2022-12-19T17:51:29.708Z,101348.19
2022-12-19T17:54:01.287Z,101341.82
2022-12-19T17:56:32.960Z,101340.96
2022-12-19T17:59:04.572Z,101339.52
2022-12-19T18:01:38.445Z,101340.38
2022-12-19T18:04:15.501Z,101338.09
2022-12-19T18:06:47.212Z,101337.03
2022-12-19T18:09:23.576Z,101336.67
2022-12-19T18:11:55.292Z,101337.23
2022-12-19T18:14:26.991Z,101335.55
2022-12-19T18:16:59.765Z,101335.86
2022-12-19T18:19:35.183Z,101330.84
2022-12-19T18:22:07.917Z,101327.20
2022-12-19T18:24:39.504Z,101327.36
2022-12-19T18:27:11.232Z,101325.96
2022-12-19T18:29:42.830Z,101330.69
2022-12-19T18:32:19.295Z,101332.72
2022-12-19T18:34:51.096Z,101333.36
2022-12-19T18:37:22.779Z,101327.17
2022-12-19T18:39:55.724Z,101328.70
2022-12-19T18:42:27.475Z,101322.19
2022-12-19T18:44:59.091Z,101321.73
2022-12-19T18:47:30.827Z,101319.75
2022-12-19T18:50:02.441Z,101318.89
2022-12-19T18:52:34.079Z,101317.33
2022-12-19T18:55:13.466Z,101316.59
2022-12-19T18:57:45.249Z,101311.19
2022-12-19T19:00:19.819Z,101310.92
2022-12-19T19:02:54.786Z,101309.41
2022-12-19T19:05:29.532Z,101307.62
2022-12-19T19:08:10.848Z,101308.44
2022-12-19T19:10:42.447Z,101311.71
2022-12-19T19:13:14.361Z,101311.92
2022-12-19T19:15:50.041Z,101312.48
2022-12-19T19:18:25.761Z,101312.77
2022-12-19T19:21:01.286Z,101313.91
2022-12-19T19:23:37.574Z,101314.33
2022-12-19T19:26:10.027Z,101310.74
2022-12-19T19:28:43.107Z,101307.86
2022-12-19T19:31:18.930Z,101310.94
2022-12-19T19:33:55.010Z,101310.02
2022-12-19T19:36:30.860Z,101311.11
2022-12-19T19:39:04.188Z,101315.86
2022-12-19T19:41:35.856Z,101311.30
2022-12-19T19:44:07.671Z,101312.65
2022-12-19T19:46:39.327Z,101307.45
2022-12-19T19:49:11.052Z,101307.37
2022-12-19T19:51:42.730Z,101307.22
2022-12-19T19:54:14.478Z,101305.73
2022-12-19T19:56:46.122Z,101307.39
2022-12-19T19:59:17.773Z,101304.30
2022-12-19T20:01:54.268Z,101307.41
2022-12-19T20:04:26.196Z,101305.59
2022-12-19T20:06:57.946Z,101307.85
2022-12-19T20:09:30.067Z,101305.72
2022-12-19T20:12:01.847Z,101299.82
2022-12-19T20:14:33.594Z,101297.73
2022-12-19T20:17:05.243Z,101295.59
2022-12-19T20:19:37.028Z,101291.23
2022-12-19T20:22:08.808Z,101286.45
2022-12-19T20:24:40.459Z,101289.08
2022-12-19T20:27:12.097Z,101288.86
2022-12-19T20:29:43.932Z,101289.93
2022-12-19T20:32:15.804Z,101288.02
2022-12-19T20:34:47.490Z,101287.71
2022-12-19T20:37:19.214Z,101288.51
2022-12-19T20:39:50.805Z,101288.05
2022-12-19T20:42:22.442Z,101283.11
2022-12-19T20:44:54.535Z,101278.14
2022-12-19T20:47:26.981Z,101277.98
2022-12-19T20:49:58.657Z,101274.23
2022-12-19T20:52:31.022Z,101269.70
2022-12-19T20:55:02.639Z,101269.96
2022-12-19T20:57:34.327Z,101267.89
2022-12-19T21:05:58.726Z,101263.51
2022-12-19T21:08:30.829Z,101258.73
2022-12-19T21:11:04.255Z,101258.10
2022-12-19T21:13:36.953Z,101254.24
2022-12-19T21:16:10.714Z,101247.02
2022-12-19T21:18:44.409Z,101247.87
2022-12-19T21:21:18.390Z,101246.85
2022-12-19T21:23:50.859Z,101243.92
2022-12-19T21:26:23.035Z,101245.00
2022-12-19T21:28:57.875Z,101247.63
2022-12-19T21:31:31.281Z,101249.84
2022-12-19T21:34:04.242Z,101253.25
2022-12-19T21:36:36.923Z,101248.27
2022-12-19T21:39:08.549Z,101245.65
2022-12-19T21:41:40.244Z,101240.34
2022-12-19T21:44:11.933Z,101242.83
2022-12-19T21:46:43.737Z,101243.08
2022-12-19T21:49:15.397Z,101240.03
2022-12-19T21:51:46.974Z,101237.77
2022-12-19T21:54:18.636Z,101240.61
2022-12-19T21:56:50.279Z,101240.99
2022-12-19T21:59:21.945Z,101239.17
2022-12-19T22:01:53.809Z,101237.45
2022-12-19T22:04:27.539Z,101234.14
2022-12-19T22:06:59.115Z,101230.02
2022-12-19T22:09:30.725Z,101222.89
2022-12-19T22:12:02.498Z,101226.39
2022-12-19T22:14:34.300Z,101223.82
2022-12-19T22:17:06.731Z,101221.79
2022-12-19T22:19:38.379Z,101227.41
2022-12-19T22:22:10.327Z,101226.98
2022-12-19T22:24:42.023Z,101220.83
2022-12-19T22:27:13.772Z,101217.72
2022-12-19T22:29:45.480Z,101216.00
2022-12-19T22:32:18.223Z,101218.38
2022-12-19T22:34:51.233Z,101215.38
2022-12-19T22:37:22.988Z,101211.35
2022-12-19T22:39:56.101Z,101214.58
2022-12-19T22:42:28.329Z,101209.80
2022-12-19T22:45:00.546Z,101210.60
2022-12-19T22:47:32.235Z,101211.30
2022-12-19T22:50:03.888Z,101208.89
2022-12-19T22:52:35.519Z,101204.86
2022-12-19T22:55:08.597Z,101193.13
2022-12-19T22:57:40.895Z,101192.80
2022-12-19T23:00:15.302Z,101183.69
2022-12-19T23:02:47.043Z,101181.09
2022-12-19T23:05:19.104Z,101180.10
2022-12-19T23:07:50.817Z,101179.09
2022-12-19T23:10:26.286Z,101183.16
2022-12-19T23:12:58.050Z,101183.80
2022-12-19T23:15:29.806Z,101183.00
2022-12-19T23:18:01.467Z,101185.14
2022-12-19T23:20:33.123Z,101179.20
2022-12-19T23:23:05.247Z,101181.91
2022-12-19T23:25:41.601Z,101182.57
2022-12-19T23:28:13.281Z,101182.08
2022-12-19T23:30:44.871Z,101180.69
2022-12-19T23:33:16.618Z,101180.59
2022-12-19T23:35:48.192Z,101176.13
2022-12-19T23:38:19.861Z,101173.56
2022-12-19T23:40:51.460Z,101173.98
2022-12-19T23:43:23.200Z,101186.79
2022-12-19T23:45:55.019Z,101197.54
2022-12-19T23:48:28.518Z,101191.23
2022-12-19T23:51:05.255Z,101186.54
2022-12-19T23:53:37.710Z,101189.01
2022-12-19T23:56:13.685Z,101187.70
2022-12-19T23:58:46.743Z,101184.06
